sensor_id;sensor_type;location;lat;lon;timestamp;temperature;humidity
38910;DHT22;24676;51.360;12.354;2023-05-17T00:01:32;6.40;99.90
38910;DHT22;24676;51.360;12.354;2023-05-17T00:04:16;6.40;99.90
38910;DHT22;24676;51.360;12.354;2023-05-17T00:07:01;6.30;99.90
38910;DHT22;24676;51.360;12.354;2023-05-17T00:09:45;6.30;99.90
38910;DHT22;24676;51.360;12.354;2023-05-17T00:12:29;6.30;99.90
38910;DHT22;24676;51.360;12.354;2023-05-17T00:15:13;6.30;99.90
38910;DHT22;24676;51.360;12.354;2023-05-17T00:17:58;6.20;99.90
38910;DHT22;24676;51.360;12.354;2023-05-17T00:20:42;6.20;99.90
38910;DHT22;24676;51.360;12.354;2023-05-17T00:23:26;6.10;99.90
38910;DHT22;24676;51.360;12.354;2023-05-17T00:26:10;6.10;99.90
38910;DHT22;24676;51.360;12.354;2023-05-17T00:28:56;6.00;99.90
38910;DHT22;24676;51.360;12.354;2023-05-17T00:31:40;6.00;99.90
38910;DHT22;24676;51.360;12.354;2023-05-17T00:34:24;6.00;99.90
38910;DHT22;24676;51.360;12.354;2023-05-17T00:37:08;5.90;99.90
38910;DHT22;24676;51.360;12.354;2023-05-17T00:39:53;5.90;99.90
38910;DHT22;24676;51.360;12.354;2023-05-17T00:42:37;5.90;99.90
38910;DHT22;24676;51.360;12.354;2023-05-17T00:45:22;5.90;99.90
38910;DHT22;24676;51.360;12.354;2023-05-17T00:48:06;5.80;99.90
38910;DHT22;24676;51.360;12.354;2023-05-17T00:50:51;5.80;99.90
38910;DHT22;24676;51.360;12.354;2023-05-17T00:53:36;5.80;99.90
38910;DHT22;24676;51.360;12.354;2023-05-17T00:56:20;5.70;99.90
38910;DHT22;24676;51.360;12.354;2023-05-17T00:59:05;5.70;99.90
38910;DHT22;24676;51.360;12.354;2023-05-17T01:01:49;5.60;99.90
38910;DHT22;24676;51.360;12.354;2023-05-17T01:04:35;5.60;99.90
38910;DHT22;24676;51.360;12.354;2023-05-17T01:07:19;5.50;99.90
38910;DHT22;24676;51.360;12.354;2023-05-17T01:10:04;5.50;99.90
38910;DHT22;24676;51.360;12.354;2023-05-17T01:13:02;5.40;99.90
38910;DHT22;24676;51.360;12.354;2023-05-17T01:15:59;5.50;99.90
38910;DHT22;24676;51.360;12.354;2023-05-17T01:18:57;5.50;99.90
38910;DHT22;24676;51.360;12.354;2023-05-17T01:25:10;5.50;99.90
38910;DHT22;24676;51.360;12.354;2023-05-17T01:28:02;5.40;99.90
38910;DHT22;24676;51.360;12.354;2023-05-17T01:30:50;5.40;99.90
38910;DHT22;24676;51.360;12.354;2023-05-17T01:33:34;5.40;99.90
38910;DHT22;24676;51.360;12.354;2023-05-17T01:36:19;5.30;99.90
38910;DHT22;24676;51.360;12.354;2023-05-17T01:39:04;5.30;99.90
38910;DHT22;24676;51.360;12.354;2023-05-17T01:48:42;5.20;99.90
38910;DHT22;24676;51.360;12.354;2023-05-17T01:51:18;5.20;99.90
38910;DHT22;24676;51.360;12.354;2023-05-17T01:54:05;5.10;99.90
38910;DHT22;24676;51.360;12.354;2023-05-17T01:56:57;5.10;99.90
38910;DHT22;24676;51.360;12.354;2023-05-17T01:59:43;5.10;99.90
38910;DHT22;24676;51.360;12.354;2023-05-17T02:02:28;5.00;99.90
38910;DHT22;24676;51.360;12.354;2023-05-17T02:05:12;5.00;99.90
38910;DHT22;24676;51.360;12.354;2023-05-17T02:07:56;4.90;99.90
38910;DHT22;24676;51.360;12.354;2023-05-17T02:10:41;4.90;99.90
38910;DHT22;24676;51.360;12.354;2023-05-17T02:13:25;4.90;99.90
38910;DHT22;24676;51.360;12.354;2023-05-17T02:16:09;4.90;99.90
38910;DHT22;24676;51.360;12.354;2023-05-17T02:18:54;4.90;99.90
38910;DHT22;24676;51.360;12.354;2023-05-17T02:21:38;4.80;99.90
38910;DHT22;24676;51.360;12.354;2023-05-17T02:24:22;4.80;99.90
38910;DHT22;24676;51.360;12.354;2023-05-17T02:27:07;4.80;99.90
38910;DHT22;24676;51.360;12.354;2023-05-17T02:29:51;4.80;99.90
38910;DHT22;24676;51.360;12.354;2023-05-17T02:32:35;4.80;99.90
38910;DHT22;24676;51.360;12.354;2023-05-17T02:35:20;4.80;99.90
38910;DHT22;24676;51.360;12.354;2023-05-17T02:38:04;4.70;99.90
38910;DHT22;24676;51.360;12.354;2023-05-17T02:40:49;4.70;99.90
38910;DHT22;24676;51.360;12.354;2023-05-17T02:43:33;4.60;99.90
38910;DHT22;24676;51.360;12.354;2023-05-17T02:46:17;4.60;99.90
38910;DHT22;24676;51.360;12.354;2023-05-17T02:49:02;4.60;99.90
38910;DHT22;24676;51.360;12.354;2023-05-17T02:51:46;4.60;99.90
38910;DHT22;24676;51.360;12.354;2023-05-17T02:54:30;4.60;99.90
38910;DHT22;24676;51.360;12.354;2023-05-17T02:57:14;4.60;99.90
38910;DHT22;24676;51.360;12.354;2023-05-17T02:59:59;4.50;99.90
38910;DHT22;24676;51.360;12.354;2023-05-17T03:02:43;4.50;99.90
38910;DHT22;24676;51.360;12.354;2023-05-17T03:05:27;4.50;99.90
38910;DHT22;24676;51.360;12.354;2023-05-17T03:08:11;4.50;99.90
38910;DHT22;24676;51.360;12.354;2023-05-17T03:10:56;4.50;99.90
38910;DHT22;24676;51.360;12.354;2023-05-17T03:13:40;4.50;99.90
38910;DHT22;24676;51.360;12.354;2023-05-17T03:16:24;4.50;99.90
38910;DHT22;24676;51.360;12.354;2023-05-17T03:19:09;4.50;99.90
38910;DHT22;24676;51.360;12.354;2023-05-17T03:21:53;4.50;99.90
38910;DHT22;24676;51.360;12.354;2023-05-17T03:24:38;4.50;99.90
38910;DHT22;24676;51.360;12.354;2023-05-17T03:27:21;4.50;99.90
38910;DHT22;24676;51.360;12.354;2023-05-17T03:30:06;4.60;99.90
38910;DHT22;24676;51.360;12.354;2023-05-17T03:32:52;4.60;99.90
38910;DHT22;24676;51.360;12.354;2023-05-17T03:35:36;4.60;99.90
38910;DHT22;24676;51.360;12.354;2023-05-17T03:38:20;4.60;99.90
38910;DHT22;24676;51.360;12.354;2023-05-17T03:41:04;4.70;99.90
38910;DHT22;24676;51.360;12.354;2023-05-17T03:43:57;4.70;99.90
38910;DHT22;24676;51.360;12.354;2023-05-17T03:46:41;4.80;99.90
38910;DHT22;24676;51.360;12.354;2023-05-17T03:49:25;4.80;99.90
38910;DHT22;24676;51.360;12.354;2023-05-17T03:52:09;4.80;99.90
38910;DHT22;24676;51.360;12.354;2023-05-17T03:54:54;4.90;99.90
38910;DHT22;24676;51.360;12.354;2023-05-17T03:57:38;5.00;99.90
38910;DHT22;24676;51.360;12.354;2023-05-17T04:00:22;5.00;99.90
38910;DHT22;24676;51.360;12.354;2023-05-17T04:03:07;5.20;99.90
38910;DHT22;24676;51.360;12.354;2023-05-17T04:05:51;5.40;99.90
38910;DHT22;24676;51.360;12.354;2023-05-17T04:08:36;5.50;99.90
38910;DHT22;24676;51.360;12.354;2023-05-17T04:11:20;5.80;99.90
38910;DHT22;24676;51.360;12.354;2023-05-17T04:14:06;6.00;99.90
38910;DHT22;24676;51.360;12.354;2023-05-17T04:16:51;6.30;99.90
38910;DHT22;24676;51.360;12.354;2023-05-17T04:19:35;6.50;99.90
38910;DHT22;24676;51.360;12.354;2023-05-17T04:22:20;6.70;99.90
38910;DHT22;24676;51.360;12.354;2023-05-17T04:25:04;6.80;99.90
38910;DHT22;24676;51.360;12.354;2023-05-17T04:27:49;6.90;99.90
38910;DHT22;24676;51.360;12.354;2023-05-17T04:30:33;7.10;99.90
38910;DHT22;24676;51.360;12.354;2023-05-17T04:33:18;7.20;99.90
38910;DHT22;24676;51.360;12.354;2023-05-17T04:36:03;7.40;99.90
38910;DHT22;24676;51.360;12.354;2023-05-17T04:38:46;7.60;99.90
38910;DHT22;24676;51.360;12.354;2023-05-17T04:41:30;8.50;99.90
38910;DHT22;24676;51.360;12.354;2023-05-17T04:44:16;10.20;99.90
38910;DHT22;24676;51.360;12.354;2023-05-17T04:47:00;11.80;99.90
38910;DHT22;24676;51.360;12.354;2023-05-17T04:49:45;12.60;99.90
38910;DHT22;24676;51.360;12.354;2023-05-17T04:52:30;13.40;99.00
38910;DHT22;24676;51.360;12.354;2023-05-17T04:55:14;13.90;99.70
38910;DHT22;24676;51.360;12.354;2023-05-17T04:57:58;14.90;90.10
38910;DHT22;24676;51.360;12.354;2023-05-17T05:00:44;15.80;76.30
38910;DHT22;24676;51.360;12.354;2023-05-17T05:03:28;16.70;69.00
38910;DHT22;24676;51.360;12.354;2023-05-17T05:06:12;17.80;62.40
38910;DHT22;24676;51.360;12.354;2023-05-17T05:08:56;18.70;58.10
38910;DHT22;24676;51.360;12.354;2023-05-17T05:11:40;19.70;53.00
38910;DHT22;24676;51.360;12.354;2023-05-17T05:14:24;20.40;51.40
38910;DHT22;24676;51.360;12.354;2023-05-17T05:17:09;20.90;49.60
38910;DHT22;24676;51.360;12.354;2023-05-17T05:19:53;21.40;47.40
38910;DHT22;24676;51.360;12.354;2023-05-17T05:22:37;21.90;46.20
38910;DHT22;24676;51.360;12.354;2023-05-17T05:25:22;22.20;45.00
38910;DHT22;24676;51.360;12.354;2023-05-17T05:28:06;21.70;45.00
38910;DHT22;24676;51.360;12.354;2023-05-17T05:30:59;21.10;45.40
38910;DHT22;24676;51.360;12.354;2023-05-17T05:33:43;20.00;48.30
38910;DHT22;24676;51.360;12.354;2023-05-17T05:36:28;20.20;48.00
38910;DHT22;24676;51.360;12.354;2023-05-17T05:39:13;20.90;47.10
38910;DHT22;24676;51.360;12.354;2023-05-17T05:41:57;20.20;47.60
38910;DHT22;24676;51.360;12.354;2023-05-17T05:44:41;18.50;50.60
38910;DHT22;24676;51.360;12.354;2023-05-17T05:47:25;17.40;54.20
38910;DHT22;24676;51.360;12.354;2023-05-17T05:50:10;17.10;55.60
38910;DHT22;24676;51.360;12.354;2023-05-17T05:52:54;18.10;54.80
38910;DHT22;24676;51.360;12.354;2023-05-17T05:55:41;19.60;51.80
38910;DHT22;24676;51.360;12.354;2023-05-17T05:58:27;21.30;47.80
38910;DHT22;24676;51.360;12.354;2023-05-17T06:01:12;22.10;46.10
38910;DHT22;24676;51.360;12.354;2023-05-17T06:04:01;22.80;43.80
38910;DHT22;24676;51.360;12.354;2023-05-17T06:06:45;23.20;43.30
38910;DHT22;24676;51.360;12.354;2023-05-17T06:09:29;23.70;41.40
38910;DHT22;24676;51.360;12.354;2023-05-17T06:12:14;24.90;39.80
38910;DHT22;24676;51.360;12.354;2023-05-17T06:14:59;25.10;38.30
38910;DHT22;24676;51.360;12.354;2023-05-17T06:17:43;25.90;37.70
38910;DHT22;24676;51.360;12.354;2023-05-17T06:20:28;27.30;36.00
38910;DHT22;24676;51.360;12.354;2023-05-17T06:23:13;27.60;34.40
38910;DHT22;24676;51.360;12.354;2023-05-17T06:25:58;27.80;34.40
38910;DHT22;24676;51.360;12.354;2023-05-17T06:28:42;27.20;33.80
38910;DHT22;24676;51.360;12.354;2023-05-17T06:31:26;27.40;34.70
38910;DHT22;24676;51.360;12.354;2023-05-17T06:34:11;28.60;33.80
38910;DHT22;24676;51.360;12.354;2023-05-17T06:36:55;27.80;32.70
38910;DHT22;24676;51.360;12.354;2023-05-17T06:39:40;26.20;35.10
38910;DHT22;24676;51.360;12.354;2023-05-17T06:42:24;24.20;36.90
38910;DHT22;24676;51.360;12.354;2023-05-17T06:45:09;22.20;40.50
38910;DHT22;24676;51.360;12.354;2023-05-17T06:47:54;21.10;43.50
38910;DHT22;24676;51.360;12.354;2023-05-17T06:50:38;21.50;43.40
38910;DHT22;24676;51.360;12.354;2023-05-17T06:53:22;21.60;42.10
38910;DHT22;24676;51.360;12.354;2023-05-17T06:56:07;22.00;42.10
38910;DHT22;24676;51.360;12.354;2023-05-17T06:58:51;21.00;43.10
38910;DHT22;24676;51.360;12.354;2023-05-17T07:01:35;20.90;42.90
38910;DHT22;24676;51.360;12.354;2023-05-17T07:04:19;22.90;40.90
38910;DHT22;24676;51.360;12.354;2023-05-17T07:07:04;24.90;36.90
38910;DHT22;24676;51.360;12.354;2023-05-17T07:09:48;26.00;34.00
38910;DHT22;24676;51.360;12.354;2023-05-17T07:12:32;27.30;33.00
38910;DHT22;24676;51.360;12.354;2023-05-17T07:15:17;28.90;30.90
38910;DHT22;24676;51.360;12.354;2023-05-17T07:18:01;30.20;29.00
38910;DHT22;24676;51.360;12.354;2023-05-17T07:20:45;29.60;28.10
38910;DHT22;24676;51.360;12.354;2023-05-17T07:23:29;27.10;29.90
38910;DHT22;24676;51.360;12.354;2023-05-17T07:26:14;25.80;32.30
38910;DHT22;24676;51.360;12.354;2023-05-17T07:28:58;26.90;31.20
38910;DHT22;24676;51.360;12.354;2023-05-17T07:31:43;28.80;28.80
38910;DHT22;24676;51.360;12.354;2023-05-17T07:34:29;29.80;27.60
38910;DHT22;24676;51.360;12.354;2023-05-17T07:37:13;30.20;27.40
38910;DHT22;24676;51.360;12.354;2023-05-17T07:39:57;30.30;26.20
38910;DHT22;24676;51.360;12.354;2023-05-17T07:42:42;32.00;25.70
38910;DHT22;24676;51.360;12.354;2023-05-17T07:45:26;31.00;26.10
38910;DHT22;24676;51.360;12.354;2023-05-17T07:48:11;28.80;26.70
38910;DHT22;24676;51.360;12.354;2023-05-17T07:50:55;26.20;29.10
38910;DHT22;24676;51.360;12.354;2023-05-17T07:53:40;24.40;31.90
38910;DHT22;24676;51.360;12.354;2023-05-17T07:56:24;22.70;35.00
38910;DHT22;24676;51.360;12.354;2023-05-17T07:59:08;21.40;38.60
38910;DHT22;24676;51.360;12.354;2023-05-17T08:01:53;22.40;38.40
38910;DHT22;24676;51.360;12.354;2023-05-17T08:04:37;24.70;34.70
38910;DHT22;24676;51.360;12.354;2023-05-17T08:07:21;24.40;32.50
38910;DHT22;24676;51.360;12.354;2023-05-17T08:10:08;23.60;32.60
38910;DHT22;24676;51.360;12.354;2023-05-17T08:12:53;22.60;34.20
38910;DHT22;24676;51.360;12.354;2023-05-17T08:15:37;21.20;36.00
38910;DHT22;24676;51.360;12.354;2023-05-17T08:18:21;19.90;39.20
38910;DHT22;24676;51.360;12.354;2023-05-17T08:21:06;18.70;42.10
38910;DHT22;24676;51.360;12.354;2023-05-17T08:23:50;18.90;43.00
38910;DHT22;24676;51.360;12.354;2023-05-17T08:26:35;19.70;41.10
38910;DHT22;24676;51.360;12.354;2023-05-17T08:29:19;19.40;40.30
38910;DHT22;24676;51.360;12.354;2023-05-17T08:32:04;18.70;41.20
38910;DHT22;24676;51.360;12.354;2023-05-17T08:34:48;18.10;42.60
38910;DHT22;24676;51.360;12.354;2023-05-17T08:37:33;17.20;44.50
38910;DHT22;24676;51.360;12.354;2023-05-17T08:40:20;16.50;46.60
38910;DHT22;24676;51.360;12.354;2023-05-17T08:43:05;16.20;47.80
38910;DHT22;24676;51.360;12.354;2023-05-17T08:45:51;16.20;48.40
38910;DHT22;24676;51.360;12.354;2023-05-17T08:48:36;17.10;47.40
38910;DHT22;24676;51.360;12.354;2023-05-17T08:51:25;17.40;46.50
38910;DHT22;24676;51.360;12.354;2023-05-17T08:54:10;17.20;45.60
38910;DHT22;24676;51.360;12.354;2023-05-17T08:56:57;16.50;45.40
38910;DHT22;24676;51.360;12.354;2023-05-17T08:59:43;15.90;46.70
38910;DHT22;24676;51.360;12.354;2023-05-17T09:02:30;15.60;48.10
38910;DHT22;24676;51.360;12.354;2023-05-17T09:05:15;15.60;48.60
38910;DHT22;24676;51.360;12.354;2023-05-17T09:08:01;15.60;47.60
38910;DHT22;24676;51.360;12.354;2023-05-17T09:10:46;15.50;48.30
38910;DHT22;24676;51.360;12.354;2023-05-17T09:13:30;15.40;49.00
38910;DHT22;24676;51.360;12.354;2023-05-17T09:16:15;15.60;49.80
38910;DHT22;24676;51.360;12.354;2023-05-17T09:18:59;16.50;48.70
38910;DHT22;24676;51.360;12.354;2023-05-17T09:21:47;17.40;47.10
38910;DHT22;24676;51.360;12.354;2023-05-17T09:24:31;18.10;45.10
38910;DHT22;24676;51.360;12.354;2023-05-17T09:27:17;18.30;43.60
38910;DHT22;24676;51.360;12.354;2023-05-17T09:30:01;18.00;43.50
38910;DHT22;24676;51.360;12.354;2023-05-17T09:32:48;17.30;44.60
38910;DHT22;24676;51.360;12.354;2023-05-17T09:35:34;17.20;45.50
38910;DHT22;24676;51.360;12.354;2023-05-17T09:38:24;17.60;45.70
38910;DHT22;24676;51.360;12.354;2023-05-17T09:41:09;17.50;44.70
38910;DHT22;24676;51.360;12.354;2023-05-17T09:43:57;17.30;44.40
38910;DHT22;24676;51.360;12.354;2023-05-17T09:46:44;17.00;44.90
38910;DHT22;24676;51.360;12.354;2023-05-17T09:49:29;16.80;45.20
38910;DHT22;24676;51.360;12.354;2023-05-17T09:52:16;16.30;46.30
38910;DHT22;24676;51.360;12.354;2023-05-17T09:55:01;16.40;46.90
38910;DHT22;24676;51.360;12.354;2023-05-17T09:57:45;16.80;45.90
38910;DHT22;24676;51.360;12.354;2023-05-17T10:00:31;16.60;45.80
38910;DHT22;24676;51.360;12.354;2023-05-17T10:03:15;16.40;46.50
38910;DHT22;24676;51.360;12.354;2023-05-17T10:06:06;15.90;48.10
38910;DHT22;24676;51.360;12.354;2023-05-17T10:08:56;15.70;48.30
38910;DHT22;24676;51.360;12.354;2023-05-17T10:11:43;15.80;47.90
38910;DHT22;24676;51.360;12.354;2023-05-17T10:14:29;16.80;47.30
38910;DHT22;24676;51.360;12.354;2023-05-17T10:17:17;18.00;44.10
38910;DHT22;24676;51.360;12.354;2023-05-17T10:20:03;19.30;42.30
38910;DHT22;24676;51.360;12.354;2023-05-17T10:22:50;20.30;38.40
38910;DHT22;24676;51.360;12.354;2023-05-17T10:25:34;19.60;37.90
38910;DHT22;24676;51.360;12.354;2023-05-17T10:28:20;18.80;40.80
38910;DHT22;24676;51.360;12.354;2023-05-17T10:31:17;18.10;41.70
38910;DHT22;24676;51.360;12.354;2023-05-17T10:34:03;17.70;43.40
38910;DHT22;24676;51.360;12.354;2023-05-17T10:36:49;17.80;43.20
38910;DHT22;24676;51.360;12.354;2023-05-17T10:39:33;17.90;43.80
38910;DHT22;24676;51.360;12.354;2023-05-17T10:42:21;19.20;41.10
38910;DHT22;24676;51.360;12.354;2023-05-17T10:45:06;20.40;38.00
38910;DHT22;24676;51.360;12.354;2023-05-17T10:47:52;21.60;35.10
38910;DHT22;24676;51.360;12.354;2023-05-17T10:50:37;21.30;33.80
38910;DHT22;24676;51.360;12.354;2023-05-17T10:53:25;20.10;36.30
38910;DHT22;24676;51.360;12.354;2023-05-17T10:56:09;19.00;39.00
38910;DHT22;24676;51.360;12.354;2023-05-17T10:59:26;18.60;40.00
38910;DHT22;24676;51.360;12.354;2023-05-17T11:02:10;18.00;40.30
38910;DHT22;24676;51.360;12.354;2023-05-17T11:04:55;17.70;40.70
38910;DHT22;24676;51.360;12.354;2023-05-17T11:07:40;17.80;41.00
38910;DHT22;24676;51.360;12.354;2023-05-17T11:10:24;18.10;40.60
38910;DHT22;24676;51.360;12.354;2023-05-17T11:13:24;18.50;41.50
38910;DHT22;24676;51.360;12.354;2023-05-17T11:16:14;19.80;40.00
38910;DHT22;24676;51.360;12.354;2023-05-17T11:19:07;20.80;36.80
38910;DHT22;24676;51.360;12.354;2023-05-17T11:21:51;21.30;35.60
38910;DHT22;24676;51.360;12.354;2023-05-17T11:24:37;21.40;34.50
38910;DHT22;24676;51.360;12.354;2023-05-17T11:27:24;20.30;35.10
38910;DHT22;24676;51.360;12.354;2023-05-17T11:33:04;20.30;36.60
38910;DHT22;24676;51.360;12.354;2023-05-17T11:35:53;20.70;35.50
38910;DHT22;24676;51.360;12.354;2023-05-17T11:38:37;20.40;37.30
38910;DHT22;24676;51.360;12.354;2023-05-17T11:41:22;19.70;36.70
38910;DHT22;24676;51.360;12.354;2023-05-17T11:44:06;19.50;37.60
38910;DHT22;24676;51.360;12.354;2023-05-17T11:47:00;18.90;39.40
38910;DHT22;24676;51.360;12.354;2023-05-17T11:49:45;18.50;39.90
38910;DHT22;24676;51.360;12.354;2023-05-17T11:52:30;18.30;40.90
38910;DHT22;24676;51.360;12.354;2023-05-17T11:55:17;18.60;41.50
38910;DHT22;24676;51.360;12.354;2023-05-17T11:58:03;18.90;41.50
38910;DHT22;24676;51.360;12.354;2023-05-17T12:00:52;18.90;40.30
38910;DHT22;24676;51.360;12.354;2023-05-17T12:03:36;19.00;38.60
38910;DHT22;24676;51.360;12.354;2023-05-17T12:06:21;19.20;38.90
38910;DHT22;24676;51.360;12.354;2023-05-17T12:09:06;19.60;38.60
38910;DHT22;24676;51.360;12.354;2023-05-17T12:11:53;19.00;39.50
38910;DHT22;24676;51.360;12.354;2023-05-17T12:14:42;18.40;39.20
38910;DHT22;24676;51.360;12.354;2023-05-17T12:17:36;18.10;39.70
38910;DHT22;24676;51.360;12.354;2023-05-17T12:20:21;18.30;39.70
38910;DHT22;24676;51.360;12.354;2023-05-17T12:23:05;18.10;40.20
38910;DHT22;24676;51.360;12.354;2023-05-17T12:25:49;17.70;40.40
38910;DHT22;24676;51.360;12.354;2023-05-17T12:28:35;17.80;41.00
38910;DHT22;24676;51.360;12.354;2023-05-17T12:31:33;17.80;41.20
38910;DHT22;24676;51.360;12.354;2023-05-17T12:34:19;17.60;41.20
38910;DHT22;24676;51.360;12.354;2023-05-17T12:37:05;17.30;41.30
38910;DHT22;24676;51.360;12.354;2023-05-17T12:39:53;17.00;41.40
38910;DHT22;24676;51.360;12.354;2023-05-17T12:42:39;16.40;42.10
38910;DHT22;24676;51.360;12.354;2023-05-17T12:45:23;16.10;43.40
38910;DHT22;24676;51.360;12.354;2023-05-17T12:48:07;16.50;45.60
38910;DHT22;24676;51.360;12.354;2023-05-17T12:50:52;17.20;43.80
38910;DHT22;24676;51.360;12.354;2023-05-17T12:53:59;17.60;41.40
38910;DHT22;24676;51.360;12.354;2023-05-17T12:56:44;17.70;41.10
38910;DHT22;24676;51.360;12.354;2023-05-17T12:59:28;17.60;41.60
38910;DHT22;24676;51.360;12.354;2023-05-17T13:02:12;17.60;42.20
38910;DHT22;24676;51.360;12.354;2023-05-17T13:04:56;17.70;41.80
38910;DHT22;24676;51.360;12.354;2023-05-17T13:07:41;17.70;40.70
38910;DHT22;24676;51.360;12.354;2023-05-17T13:10:26;17.70;40.60
38910;DHT22;24676;51.360;12.354;2023-05-17T13:13:20;17.80;41.80
38910;DHT22;24676;51.360;12.354;2023-05-17T13:16:05;17.90;41.10
38910;DHT22;24676;51.360;12.354;2023-05-17T13:18:50;17.90;41.30
38910;DHT22;24676;51.360;12.354;2023-05-17T13:21:35;17.90;40.60
38910;DHT22;24676;51.360;12.354;2023-05-17T13:24:19;17.70;40.70
38910;DHT22;24676;51.360;12.354;2023-05-17T13:27:04;17.60;41.80
38910;DHT22;24676;51.360;12.354;2023-05-17T13:29:49;17.40;41.40
38910;DHT22;24676;51.360;12.354;2023-05-17T13:32:33;17.30;42.20
38910;DHT22;24676;51.360;12.354;2023-05-17T13:35:18;17.50;42.40
38910;DHT22;24676;51.360;12.354;2023-05-17T13:38:02;17.50;41.10
38910;DHT22;24676;51.360;12.354;2023-05-17T13:40:46;17.60;40.80
38910;DHT22;24676;51.360;12.354;2023-05-17T13:43:30;17.60;40.90
38910;DHT22;24676;51.360;12.354;2023-05-17T13:46:14;17.40;41.10
38910;DHT22;24676;51.360;12.354;2023-05-17T13:48:59;17.10;41.80
38910;DHT22;24676;51.360;12.354;2023-05-17T13:51:51;17.00;42.00
38910;DHT22;24676;51.360;12.354;2023-05-17T13:54:36;17.00;41.80
38910;DHT22;24676;51.360;12.354;2023-05-17T13:57:20;16.90;41.50
38910;DHT22;24676;51.360;12.354;2023-05-17T14:00:05;16.90;40.60
38910;DHT22;24676;51.360;12.354;2023-05-17T14:02:50;16.90;41.60
38910;DHT22;24676;51.360;12.354;2023-05-17T14:05:34;16.90;41.90
38910;DHT22;24676;51.360;12.354;2023-05-17T14:08:19;17.00;43.20
38910;DHT22;24676;51.360;12.354;2023-05-17T14:11:03;17.00;43.30
38910;DHT22;24676;51.360;12.354;2023-05-17T14:13:47;17.10;42.80
38910;DHT22;24676;51.360;12.354;2023-05-17T14:16:31;17.10;43.20
38910;DHT22;24676;51.360;12.354;2023-05-17T14:19:16;17.10;41.60
38910;DHT22;24676;51.360;12.354;2023-05-17T14:22:00;17.00;39.60
38910;DHT22;24676;51.360;12.354;2023-05-17T14:24:44;16.90;40.00
38910;DHT22;24676;51.360;12.354;2023-05-17T14:27:28;16.90;39.70
38910;DHT22;24676;51.360;12.354;2023-05-17T14:30:13;16.80;40.10
38910;DHT22;24676;51.360;12.354;2023-05-17T14:32:57;16.80;40.50
38910;DHT22;24676;51.360;12.354;2023-05-17T14:35:42;16.80;40.50
38910;DHT22;24676;51.360;12.354;2023-05-17T14:38:26;16.90;41.00
38910;DHT22;24676;51.360;12.354;2023-05-17T14:41:11;16.90;41.10
38910;DHT22;24676;51.360;12.354;2023-05-17T14:43:55;17.10;41.00
38910;DHT22;24676;51.360;12.354;2023-05-17T14:46:39;17.20;41.40
38910;DHT22;24676;51.360;12.354;2023-05-17T14:49:24;17.20;41.50
38910;DHT22;24676;51.360;12.354;2023-05-17T14:52:08;17.00;41.90
38910;DHT22;24676;51.360;12.354;2023-05-17T14:54:53;16.90;42.00
38910;DHT22;24676;51.360;12.354;2023-05-17T14:57:37;16.80;42.00
38910;DHT22;24676;51.360;12.354;2023-05-17T15:00:23;16.80;42.00
38910;DHT22;24676;51.360;12.354;2023-05-17T15:03:07;16.80;41.20
38910;DHT22;24676;51.360;12.354;2023-05-17T15:05:52;16.70;41.60
38910;DHT22;24676;51.360;12.354;2023-05-17T15:08:37;16.70;41.90
38910;DHT22;24676;51.360;12.354;2023-05-17T15:11:22;16.60;42.50
38910;DHT22;24676;51.360;12.354;2023-05-17T15:14:07;16.60;42.10
38910;DHT22;24676;51.360;12.354;2023-05-17T15:16:51;16.70;42.70
38910;DHT22;24676;51.360;12.354;2023-05-17T15:19:39;16.70;43.70
38910;DHT22;24676;51.360;12.354;2023-05-17T15:22:24;16.80;42.70
38910;DHT22;24676;51.360;12.354;2023-05-17T15:25:08;16.70;41.50
38910;DHT22;24676;51.360;12.354;2023-05-17T15:27:52;16.70;42.80
38910;DHT22;24676;51.360;12.354;2023-05-17T15:30:37;16.70;43.10
38910;DHT22;24676;51.360;12.354;2023-05-17T15:33:23;16.60;43.20
38910;DHT22;24676;51.360;12.354;2023-05-17T15:36:09;16.60;43.70
38910;DHT22;24676;51.360;12.354;2023-05-17T15:38:54;16.70;42.60
38910;DHT22;24676;51.360;12.354;2023-05-17T15:41:38;16.80;42.00
38910;DHT22;24676;51.360;12.354;2023-05-17T15:44:23;16.80;41.50
38910;DHT22;24676;51.360;12.354;2023-05-17T15:47:07;16.90;40.60
38910;DHT22;24676;51.360;12.354;2023-05-17T15:49:52;16.80;40.10
38910;DHT22;24676;51.360;12.354;2023-05-17T15:52:37;16.70;39.40
38910;DHT22;24676;51.360;12.354;2023-05-17T15:55:21;16.50;40.20
38910;DHT22;24676;51.360;12.354;2023-05-17T15:58:06;16.30;41.30
38910;DHT22;24676;51.360;12.354;2023-05-17T16:00:53;16.10;42.60
38910;DHT22;24676;51.360;12.354;2023-05-17T16:03:37;16.00;43.90
38910;DHT22;24676;51.360;12.354;2023-05-17T16:06:21;16.00;43.80
38910;DHT22;24676;51.360;12.354;2023-05-17T16:09:05;15.90;43.90
38910;DHT22;24676;51.360;12.354;2023-05-17T16:11:50;16.00;44.80
38910;DHT22;24676;51.360;12.354;2023-05-17T16:14:34;15.90;43.80
38910;DHT22;24676;51.360;12.354;2023-05-17T16:17:18;15.90;44.00
38910;DHT22;24676;51.360;12.354;2023-05-17T16:20:03;15.90;44.30
38910;DHT22;24676;51.360;12.354;2023-05-17T16:22:48;15.80;44.00
38910;DHT22;24676;51.360;12.354;2023-05-17T16:25:34;15.80;43.40
38910;DHT22;24676;51.360;12.354;2023-05-17T16:28:19;15.70;42.30
38910;DHT22;24676;51.360;12.354;2023-05-17T16:31:04;15.60;42.70
38910;DHT22;24676;51.360;12.354;2023-05-17T16:33:50;15.60;42.70
38910;DHT22;24676;51.360;12.354;2023-05-17T16:36:34;15.50;42.50
38910;DHT22;24676;51.360;12.354;2023-05-17T16:39:19;15.50;42.80
38910;DHT22;24676;51.360;12.354;2023-05-17T16:42:03;15.40;42.50
38910;DHT22;24676;51.360;12.354;2023-05-17T16:44:47;15.40;43.10
38910;DHT22;24676;51.360;12.354;2023-05-17T16:47:32;15.40;43.80
38910;DHT22;24676;51.360;12.354;2023-05-17T16:50:16;15.40;44.00
38910;DHT22;24676;51.360;12.354;2023-05-17T16:53:00;15.40;44.30
38910;DHT22;24676;51.360;12.354;2023-05-17T16:55:44;15.30;44.50
38910;DHT22;24676;51.360;12.354;2023-05-17T16:58:29;15.30;44.70
38910;DHT22;24676;51.360;12.354;2023-05-17T17:01:13;15.20;44.60
38910;DHT22;24676;51.360;12.354;2023-05-17T17:03:58;15.20;45.00
38910;DHT22;24676;51.360;12.354;2023-05-17T17:06:42;15.30;45.10
38910;DHT22;24676;51.360;12.354;2023-05-17T17:09:27;15.20;45.10
38910;DHT22;24676;51.360;12.354;2023-05-17T17:12:14;15.20;45.30
38910;DHT22;24676;51.360;12.354;2023-05-17T17:14:59;15.20;45.00
38910;DHT22;24676;51.360;12.354;2023-05-17T17:17:43;15.20;45.20
38910;DHT22;24676;51.360;12.354;2023-05-17T17:20:28;15.20;44.40
38910;DHT22;24676;51.360;12.354;2023-05-17T17:23:12;15.20;44.40
38910;DHT22;24676;51.360;12.354;2023-05-17T17:25:57;15.10;44.80